createdAt,value
2023-04-02T00:01:47.018Z,16.50
2023-04-02T00:04:26.307Z,17.17
2023-04-02T00:06:55.348Z,18.75
2023-04-02T00:09:40.795Z,17.88
2023-04-02T00:12:18.912Z,17.42
2023-04-02T00:14:48.678Z,21.00
2023-04-02T00:17:16.347Z,18.65
2023-04-02T00:19:52.966Z,17.83
2023-04-02T00:22:21.908Z,18.85
2023-04-02T00:24:53.596Z,16.25
2023-04-02T00:27:21.250Z,18.17
2023-04-02T00:29:52.993Z,14.98
2023-04-02T00:32:31.689Z,15.48
2023-04-02T00:34:59.661Z,16.35
2023-04-02T00:37:39.035Z,19.15
2023-04-02T00:40:11.050Z,20.13
2023-04-02T00:42:40.327Z,19.05
2023-04-02T00:45:14.672Z,18.30
2023-04-02T00:47:41.924Z,17.27
2023-04-02T00:50:12.104Z,19.88
2023-04-02T00:52:39.840Z,19.88
2023-04-02T00:55:24.428Z,19.58
2023-04-02T00:57:52.304Z,19.58
2023-04-02T01:00:19.571Z,17.95
2023-04-02T01:03:06.770Z,19.17
2023-04-02T01:05:36.190Z,18.80
2023-04-02T01:08:11.481Z,16.27
2023-04-02T01:10:57.843Z,14.95
2023-04-02T01:13:31.462Z,14.10
2023-04-02T01:16:07.319Z,15.35
2023-04-02T01:18:42.029Z,15.90
2023-04-02T01:21:12.497Z,15.07
2023-04-02T01:23:46.453Z,14.98
2023-04-02T01:26:16.919Z,13.57
2023-04-02T01:31:11.463Z,16.27
2023-04-02T01:33:41.780Z,15.90
2023-04-02T01:36:15.253Z,15.40
2023-04-02T01:38:47.017Z,18.80
2023-04-02T01:41:33.231Z,15.18
2023-04-02T01:44:24.213Z,16.52
2023-04-02T01:46:51.656Z,15.85
2023-04-02T01:49:21.292Z,13.32
2023-04-02T01:51:53.097Z,16.55
2023-04-02T01:54:22.275Z,16.45
2023-04-02T01:56:50.172Z,14.70
2023-04-02T01:59:22.288Z,17.30
2023-04-02T02:01:54.900Z,18.13
2023-04-02T02:04:22.394Z,17.98
2023-04-02T02:06:50.385Z,15.20
2023-04-02T02:09:26.132Z,16.50
2023-04-02T02:11:53.416Z,16.55
2023-04-02T02:14:22.702Z,15.82
2023-04-02T02:16:50.378Z,16.00
2023-04-02T02:19:41.126Z,16.25
2023-04-02T02:22:27.809Z,16.60
2023-04-02T02:24:56.602Z,15.10
2023-04-02T02:27:23.684Z,17.67
2023-04-02T02:30:03.080Z,14.52
2023-04-02T02:32:31.284Z,15.35
2023-04-02T02:35:02.830Z,14.57
2023-04-02T02:37:31.643Z,13.90
2023-04-02T02:40:01.388Z,14.48
2023-04-02T02:42:37.574Z,14.38
2023-04-02T02:45:07.177Z,13.20
2023-04-02T02:47:38.791Z,12.80
2023-04-02T02:50:10.572Z,12.63
2023-04-02T02:52:39.264Z,11.75
2023-04-02T02:55:13.234Z,11.95
2023-04-02T02:58:06.917Z,12.05
2023-04-02T03:00:41.243Z,12.70
2023-04-02T03:03:11.455Z,11.10
2023-04-02T03:05:39.823Z,15.63
2023-04-02T03:08:16.369Z,13.02
2023-04-02T03:10:51.211Z,11.48
2023-04-02T03:13:25.564Z,10.93
2023-04-02T03:16:02.903Z,13.07
2023-04-02T03:18:33.502Z,10.90
2023-04-02T03:21:31.606Z,15.18
2023-04-02T03:24:01.534Z,16.60
2023-04-02T03:26:35.802Z,10.32
2023-04-02T03:29:21.676Z,15.38
2023-04-02T03:31:51.009Z,11.63
2023-04-02T03:34:35.059Z,14.98
2023-04-02T03:37:03.908Z,14.88
2023-04-02T03:39:36.963Z,13.23
2023-04-02T03:42:08.330Z,12.57
2023-04-02T03:44:38.614Z,13.40
2023-04-02T03:49:53.890Z,14.07
2023-04-02T03:52:26.371Z,13.88
2023-04-02T03:54:56.193Z,11.73
2023-04-02T03:57:34.913Z,11.55
2023-04-02T04:00:08.101Z,14.50
2023-04-02T04:02:44.725Z,13.60
2023-04-02T04:05:24.860Z,13.40
2023-04-02T04:07:56.117Z,14.15
2023-04-02T04:10:25.423Z,14.98
2023-04-02T04:12:55.047Z,13.73
2023-04-02T04:15:24.107Z,14.35
2023-04-02T04:17:51.661Z,16.23
2023-04-02T04:20:24.545Z,13.38
2023-04-02T04:22:59.043Z,12.02
2023-04-02T04:25:34.376Z,13.55
2023-04-02T04:28:16.507Z,15.48
2023-04-02T04:30:48.238Z,11.88
2023-04-02T04:33:22.372Z,11.88
2023-04-02T04:35:59.323Z,11.05
2023-04-02T04:38:39.487Z,10.10
2023-04-02T04:41:11.944Z,14.00
2023-04-02T04:43:49.188Z,13.63
2023-04-02T04:48:56.937Z,11.10
2023-04-02T04:51:27.296Z,14.52
2023-04-02T04:53:55.975Z,14.57
2023-04-02T04:56:28.775Z,12.85
2023-04-02T04:59:16.731Z,10.27
2023-04-02T05:01:54.484Z,11.40
2023-04-02T05:04:39.677Z,9.45
2023-04-02T05:07:16.609Z,12.70
2023-04-02T05:09:53.084Z,13.45
2023-04-02T05:12:28.902Z,12.70
2023-04-02T05:15:05.951Z,12.20
2023-04-02T05:17:40.572Z,10.60
2023-04-02T05:20:16.432Z,11.02
2023-04-02T05:22:53.175Z,11.20
2023-04-02T05:25:24.311Z,14.18
2023-04-02T05:27:58.253Z,13.00
2023-04-02T05:30:31.182Z,11.70
2023-04-02T05:33:07.949Z,4.47
2023-04-02T05:35:37.161Z,9.73
2023-04-02T05:38:06.871Z,8.95
2023-04-02T05:40:40.822Z,13.40
2023-04-02T05:43:12.223Z,6.07
2023-04-02T05:45:45.582Z,10.02
2023-04-02T05:48:21.620Z,6.65
2023-04-02T05:50:53.992Z,6.18
2023-04-02T05:53:27.136Z,7.50
2023-04-02T05:56:00.820Z,8.60
2023-04-02T05:58:45.488Z,9.13
2023-04-02T06:01:25.603Z,9.68
2023-04-02T06:03:58.059Z,8.27
2023-04-02T06:06:43.591Z,9.23
2023-04-02T06:09:22.350Z,9.13
2023-04-02T06:11:53.715Z,11.77
2023-04-02T06:14:21.251Z,8.77
2023-04-02T06:16:49.756Z,10.10
2023-04-02T06:19:23.163Z,9.52
2023-04-02T06:21:52.017Z,11.35
2023-04-02T06:24:25.612Z,8.05
2023-04-02T06:27:03.741Z,12.75
2023-04-02T06:29:39.667Z,9.90
2023-04-02T06:32:11.483Z,9.55
2023-04-02T06:34:43.154Z,9.75
2023-04-02T06:37:22.204Z,8.95
2023-04-02T06:39:55.767Z,8.02
2023-04-02T06:42:28.362Z,6.22
2023-04-02T06:45:24.115Z,8.25
2023-04-02T06:48:18.744Z,11.60
2023-04-02T06:50:55.519Z,11.18
2023-04-02T06:53:28.582Z,11.40
2023-04-02T06:56:03.668Z,9.05
2023-04-02T06:58:32.623Z,11.20
2023-04-02T07:01:00.788Z,13.18
2023-04-02T07:03:37.260Z,7.85
2023-04-02T07:06:18.249Z,9.82
2023-04-02T07:08:46.906Z,12.90
2023-04-02T07:11:20.827Z,11.93
2023-04-02T07:13:50.407Z,10.30
2023-04-02T07:16:19.854Z,11.65
2023-04-02T07:18:48.114Z,9.07
2023-04-02T07:21:15.661Z,10.93
2023-04-02T07:23:43.053Z,11.70
2023-04-02T07:26:18.737Z,8.55
2023-04-02T07:28:46.021Z,9.23
2023-04-02T07:31:18.822Z,8.35
2023-04-02T07:33:46.337Z,10.05
2023-04-02T07:36:14.830Z,12.40
2023-04-02T07:38:42.207Z,13.38
2023-04-02T07:41:09.913Z,6.22
2023-04-02T07:43:37.254Z,10.57
2023-04-02T07:46:05.084Z,10.00
2023-04-02T07:48:32.561Z,11.20
2023-04-02T07:51:00.571Z,8.10
2023-04-02T07:53:35.654Z,6.55
2023-04-02T07:56:03.843Z,6.72
2023-04-02T07:58:31.642Z,9.23
2023-04-02T08:01:00.075Z,8.25
2023-04-02T08:03:27.736Z,8.68
2023-04-02T08:05:56.385Z,7.70
2023-04-02T08:08:24.097Z,7.65
2023-04-02T08:10:51.316Z,11.88
2023-04-02T08:13:19.050Z,9.52
2023-04-02T08:15:46.432Z,9.23
2023-04-02T08:18:13.777Z,7.88
2023-04-02T08:20:41.050Z,11.80
2023-04-02T08:23:15.526Z,11.02
2023-04-02T08:25:42.929Z,8.48
2023-04-02T08:28:10.167Z,10.48
2023-04-02T08:30:37.852Z,12.13
2023-04-02T08:33:05.868Z,12.73
2023-04-02T08:35:34.992Z,10.60
2023-04-02T08:38:02.690Z,9.45
2023-04-02T08:40:35.374Z,9.30
2023-04-02T08:43:10.846Z,11.35
2023-04-02T08:45:56.466Z,10.90
2023-04-02T08:48:24.456Z,13.50
2023-04-02T08:50:51.707Z,10.90
2023-04-02T08:53:21.738Z,10.93
2023-04-02T08:56:08.389Z,11.73
2023-04-02T08:58:41.813Z,10.55
2023-04-02T09:01:18.110Z,10.35
2023-04-02T09:03:46.847Z,10.70
2023-04-02T09:06:16.675Z,10.20
2023-04-02T09:08:44.551Z,13.85
2023-04-02T09:11:30.558Z,13.10
2023-04-02T09:13:59.153Z,9.52
2023-04-02T09:16:42.128Z,15.30
2023-04-02T09:21:42.531Z,10.38
2023-04-02T09:24:15.575Z,8.52
2023-04-02T09:26:42.831Z,6.50
2023-04-02T09:29:13.368Z,9.70
2023-04-02T09:31:59.851Z,8.00
2023-04-02T09:34:29.322Z,6.28
2023-04-02T09:36:56.971Z,9.10
2023-04-02T09:39:28.566Z,7.30
2023-04-02T09:42:05.385Z,7.60
2023-04-02T09:44:33.866Z,6.55
2023-04-02T09:47:05.675Z,6.63
2023-04-02T09:49:38.672Z,8.70
2023-04-02T09:52:06.165Z,6.35
2023-04-02T09:54:33.420Z,5.80
2023-04-02T09:57:02.713Z,5.70
2023-04-02T09:59:30.034Z,5.95
2023-04-02T10:01:57.205Z,4.97
2023-04-02T10:04:44.064Z,7.82
2023-04-02T10:07:38.489Z,7.78
2023-04-02T10:10:05.802Z,8.27
2023-04-02T10:12:38.831Z,9.25
2023-04-02T10:15:07.373Z,6.32
2023-04-02T10:17:37.210Z,7.95
2023-04-02T10:20:15.609Z,8.52
2023-04-02T10:22:42.770Z,5.38
2023-04-02T10:25:15.124Z,4.80
2023-04-02T10:28:22.974Z,7.00
2023-04-02T10:31:13.180Z,6.97
2023-04-02T10:33:44.176Z,6.55
2023-04-02T10:36:30.300Z,6.00
2023-04-02T10:39:11.974Z,5.32
2023-04-02T10:42:14.177Z,5.82
2023-04-02T10:45:16.531Z,5.70
2023-04-02T10:48:03.464Z,8.45
2023-04-02T10:50:32.700Z,7.20
2023-04-02T10:53:14.497Z,7.93
2023-04-02T10:55:45.868Z,6.43
2023-04-02T10:58:26.307Z,6.45
2023-04-02T11:01:01.623Z,6.25
2023-04-02T11:03:42.523Z,5.35
2023-04-02T11:06:27.646Z,7.13
2023-04-02T11:09:04.173Z,6.88
2023-04-02T11:11:38.738Z,5.88
2023-04-02T11:14:06.089Z,4.88
2023-04-02T11:16:35.735Z,5.97
2023-04-02T11:19:24.506Z,6.55
2023-04-02T11:22:00.254Z,7.28
2023-04-02T11:24:33.038Z,5.28
2023-04-02T11:27:12.283Z,6.18
2023-04-02T11:30:14.220Z,8.55
2023-04-02T11:32:43.550Z,5.47
2023-04-02T11:35:32.332Z,6.22
2023-04-02T11:38:23.171Z,4.65
2023-04-02T11:40:51.697Z,7.95
2023-04-02T11:43:33.876Z,7.13
2023-04-02T11:46:01.021Z,7.03
2023-04-02T11:48:35.981Z,4.35
2023-04-02T11:51:22.391Z,5.68
2023-04-02T11:53:54.522Z,5.90
2023-04-02T11:56:42.366Z,4.93
2023-04-02T11:59:17.987Z,5.75
2023-04-02T12:04:21.294Z,4.72
2023-04-02T12:07:03.046Z,4.97
2023-04-02T12:09:36.854Z,4.97
2023-04-02T12:12:31.425Z,5.88
2023-04-02T12:14:59.435Z,4.78
2023-04-02T12:17:29.401Z,5.03
2023-04-02T12:20:20.474Z,5.43
2023-04-02T12:22:51.835Z,4.72
2023-04-02T12:25:19.180Z,4.15
2023-04-02T12:27:46.556Z,6.43
2023-04-02T12:30:21.669Z,5.15
2023-04-02T12:32:49.371Z,6.20
2023-04-02T12:35:43.670Z,6.45
2023-04-02T12:38:33.452Z,6.40
2023-04-02T12:41:06.644Z,6.60
2023-04-02T12:43:35.743Z,6.45
2023-04-02T12:46:05.316Z,5.80
2023-04-02T12:48:33.378Z,7.53
2023-04-02T12:51:01.241Z,6.93
2023-04-02T12:53:36.197Z,6.05
2023-04-02T12:56:03.431Z,5.07
2023-04-02T12:58:37.263Z,7.07
2023-04-02T13:01:19.940Z,5.20
2023-04-02T13:04:19.367Z,7.00
2023-04-02T13:06:52.173Z,5.03
2023-04-02T13:09:39.406Z,5.68
2023-04-02T13:12:07.413Z,6.93
2023-04-02T13:14:34.600Z,6.68
2023-04-02T13:17:01.801Z,3.45
2023-04-02T13:19:31.715Z,5.80
2023-04-02T13:22:01.459Z,7.22
2023-04-02T13:24:30.981Z,8.38
2023-04-02T13:27:00.986Z,6.97
2023-04-02T13:29:35.984Z,5.45
2023-04-02T13:32:12.503Z,6.95
2023-04-02T13:34:39.869Z,6.53
2023-04-02T13:37:07.133Z,7.07
2023-04-02T13:39:34.306Z,6.28
2023-04-02T13:42:03.892Z,5.95
2023-04-02T13:44:33.779Z,5.15
2023-04-02T13:47:02.036Z,6.07
2023-04-02T13:49:29.866Z,4.82
2023-04-02T13:52:03.820Z,5.65
2023-04-02T13:54:44.687Z,6.80
2023-04-02T13:57:11.988Z,5.40
2023-04-02T13:59:39.495Z,6.47
2023-04-02T14:02:10.394Z,5.15
2023-04-02T14:04:44.168Z,7.97
2023-04-02T14:07:14.564Z,5.00
2023-04-02T14:10:02.420Z,7.18
2023-04-02T14:12:35.373Z,6.28
2023-04-02T14:15:18.021Z,6.07
2023-04-02T14:18:04.369Z,5.63
2023-04-02T14:20:44.048Z,5.82
2023-04-02T14:23:24.061Z,6.38
2023-04-02T14:25:58.133Z,8.70
2023-04-02T14:28:31.479Z,6.07
2023-04-02T14:31:14.131Z,5.00
2023-04-02T14:33:41.377Z,6.18
2023-04-02T14:36:11.517Z,4.32
2023-04-02T14:43:42.013Z,10.50
2023-04-02T14:46:12.697Z,7.07
2023-04-02T14:48:56.560Z,5.82
2023-04-02T14:51:27.381Z,8.00
2023-04-02T14:54:01.363Z,4.82
2023-04-02T14:56:29.750Z,4.93
2023-04-02T14:59:17.367Z,6.90
2023-04-02T15:01:47.089Z,5.75
2023-04-02T15:04:18.118Z,5.28
2023-04-02T15:06:50.139Z,4.88
2023-04-02T15:09:22.949Z,6.28
2023-04-02T15:12:19.012Z,8.15
2023-04-02T15:14:47.133Z,6.25
2023-04-02T15:17:14.431Z,4.72
2023-04-02T15:19:41.557Z,6.97
2023-04-02T15:22:16.403Z,5.80
2023-04-02T15:24:47.711Z,7.35
2023-04-02T15:27:24.879Z,7.47
2023-04-02T15:30:09.039Z,8.95
2023-04-02T15:32:40.857Z,7.05
2023-04-02T15:35:14.690Z,6.22
2023-04-02T15:38:05.700Z,5.07
2023-04-02T15:40:32.992Z,4.05
2023-04-02T15:43:15.530Z,9.18
2023-04-02T15:45:46.938Z,6.60
2023-04-02T15:48:29.572Z,7.38
2023-04-02T15:51:08.492Z,7.30
2023-04-02T15:53:36.004Z,5.72
2023-04-02T15:56:27.103Z,4.32
2023-04-02T15:59:02.875Z,5.22
2023-04-02T16:01:40.216Z,3.42
2023-04-02T16:04:33.003Z,5.65
2023-04-02T16:07:12.532Z,9.15
2023-04-02T16:09:39.729Z,4.15
2023-04-02T16:12:14.409Z,5.15
2023-04-02T16:14:42.893Z,5.13
2023-04-02T16:17:24.856Z,6.65
2023-04-02T16:19:55.223Z,6.63
2023-04-02T16:22:28.193Z,7.82
2023-04-02T16:25:03.779Z,6.75
2023-04-02T16:27:37.150Z,6.45
2023-04-02T16:30:23.355Z,6.65
2023-04-02T16:33:09.433Z,6.40
2023-04-02T16:35:50.592Z,8.20
2023-04-02T16:38:37.867Z,5.75
2023-04-02T16:41:09.051Z,4.53
2023-04-02T16:43:50.497Z,8.30
2023-04-02T16:46:40.267Z,5.10
2023-04-02T16:49:08.269Z,8.02
2023-04-02T16:51:38.834Z,5.45
2023-04-02T16:54:12.776Z,5.55
2023-04-02T16:57:06.449Z,6.28
2023-04-02T16:59:36.806Z,7.30
2023-04-02T17:05:00.643Z,5.65
2023-04-02T17:07:47.694Z,6.28
2023-04-02T17:10:30.342Z,7.35
2023-04-02T17:15:28.253Z,5.45
2023-04-02T17:17:59.621Z,7.05
2023-04-02T17:20:28.681Z,5.32
2023-04-02T17:22:56.817Z,5.43
2023-04-02T17:25:31.225Z,6.00
2023-04-02T17:27:58.638Z,6.80
2023-04-02T17:30:39.950Z,5.63
2023-04-02T17:33:14.903Z,6.38
2023-04-02T17:36:00.894Z,6.28
2023-04-02T17:38:28.569Z,4.13
2023-04-02T17:41:00.563Z,5.20
2023-04-02T17:43:40.056Z,7.43
2023-04-02T17:46:25.600Z,8.43
2023-04-02T17:49:13.556Z,5.78
2023-04-02T17:51:45.997Z,7.63
2023-04-02T17:54:13.176Z,7.07
2023-04-02T17:56:40.461Z,8.70
2023-04-02T17:59:37.122Z,7.75
2023-04-02T18:02:04.454Z,6.35
2023-04-02T18:04:38.046Z,6.07
2023-04-02T18:07:24.066Z,6.80
2023-04-02T18:10:11.494Z,6.10
2023-04-02T18:12:59.324Z,7.30
2023-04-02T18:15:59.029Z,8.73
2023-04-02T18:18:28.769Z,6.25
2023-04-02T18:21:09.027Z,6.05
2023-04-02T18:23:44.975Z,7.00
2023-04-02T18:26:16.088Z,7.65
2023-04-02T18:28:58.364Z,8.57
2023-04-02T18:31:25.841Z,6.70
2023-04-02T18:34:18.651Z,7.47
2023-04-02T18:37:08.146Z,7.30
2023-04-02T18:39:41.628Z,8.48
2023-04-02T18:42:28.153Z,6.82
2023-04-02T18:45:11.369Z,7.53
2023-04-02T18:47:38.695Z,8.15
2023-04-02T18:50:12.746Z,6.78
2023-04-02T18:52:41.649Z,9.27
2023-04-02T18:55:29.184Z,8.82
2023-04-02T18:57:59.480Z,7.18
2023-04-02T19:00:36.568Z,8.27
2023-04-02T19:03:13.004Z,8.95
2023-04-02T19:05:54.416Z,7.38
2023-04-02T19:08:29.007Z,10.30
2023-04-02T19:11:06.343Z,9.32
2023-04-02T19:13:35.289Z,8.02
2023-04-02T19:16:11.704Z,9.25
2023-04-02T19:18:49.850Z,9.68
2023-04-02T19:21:29.369Z,6.65
2023-04-02T19:24:08.831Z,6.43
2023-04-02T19:26:39.434Z,4.68
2023-04-02T19:29:11.009Z,5.70
2023-04-02T19:31:50.454Z,8.90
2023-04-02T19:34:26.903Z,7.57
2023-04-02T19:37:12.034Z,8.07
2023-04-02T19:39:53.473Z,7.22
2023-04-02T19:42:23.653Z,5.32
2023-04-02T19:44:52.418Z,5.38
2023-04-02T19:47:19.934Z,6.45
2023-04-02T19:49:48.425Z,5.32
2023-04-02T19:52:15.831Z,7.68
2023-04-02T19:54:43.358Z,4.20
2023-04-02T19:57:13.240Z,5.10
2023-04-02T19:59:40.717Z,6.05
2023-04-02T20:02:10.649Z,6.05
2023-04-02T20:04:39.957Z,5.45
2023-04-02T20:07:08.975Z,6.40
2023-04-02T20:09:36.861Z,4.40
2023-04-02T20:12:07.259Z,5.97
2023-04-02T20:17:03.128Z,6.90
2023-04-02T20:19:30.952Z,5.72
2023-04-02T20:22:00.360Z,6.68
2023-04-02T20:24:27.875Z,7.65
2023-04-02T20:26:55.089Z,4.82
2023-04-02T20:29:24.490Z,4.78
2023-04-02T20:31:51.877Z,6.50
2023-04-02T20:34:19.343Z,5.97
2023-04-02T20:36:46.805Z,5.82
2023-04-02T20:39:20.273Z,7.43
2023-04-02T20:41:48.352Z,5.40
2023-04-02T20:44:16.001Z,5.63
2023-04-02T20:46:43.232Z,3.53
2023-04-02T20:49:10.448Z,5.45
2023-04-02T20:51:37.834Z,5.47
2023-04-02T20:54:05.112Z,6.20
2023-04-02T20:56:32.944Z,5.57
2023-04-02T20:59:00.722Z,4.95
2023-04-02T21:01:29.495Z,6.55
2023-04-02T21:04:01.208Z,6.15
2023-04-02T21:06:30.205Z,6.57
2023-04-02T21:08:57.706Z,4.90
2023-04-02T21:11:26.586Z,3.38
2023-04-02T21:13:53.877Z,6.00
2023-04-02T21:16:28.424Z,4.85
2023-04-02T21:18:56.429Z,4.38
2023-04-02T21:21:23.988Z,4.55
2023-04-02T21:23:55.799Z,4.65
2023-04-02T21:26:23.226Z,5.78
2023-04-02T21:28:50.821Z,3.30
2023-04-02T21:31:21.840Z,4.97
2023-04-02T21:33:50.456Z,5.78
2023-04-02T21:36:19.886Z,5.32
2023-04-02T21:38:48.394Z,4.97
2023-04-02T21:41:17.109Z,6.32
2023-04-02T21:43:45.867Z,7.10
2023-04-02T21:46:13.304Z,9.90
2023-04-02T21:48:42.102Z,7.63
2023-04-02T21:51:11.407Z,5.72
2023-04-02T21:53:39.279Z,3.78
2023-04-02T21:56:07.760Z,5.63
2023-04-02T21:58:35.477Z,5.07
2023-04-02T22:01:03.499Z,6.10
2023-04-02T22:03:34.189Z,3.92
2023-04-02T22:06:02.958Z,6.22
2023-04-02T22:08:30.171Z,6.82
2023-04-02T22:10:57.499Z,4.78
2023-04-02T22:13:24.809Z,6.40
2023-04-02T22:15:52.090Z,6.50
2023-04-02T22:18:19.318Z,5.93
2023-04-02T22:20:46.695Z,3.67
2023-04-02T22:23:13.920Z,5.50
2023-04-02T22:25:41.506Z,6.78
2023-04-02T22:28:08.675Z,6.75
2023-04-02T22:30:36.395Z,4.22
2023-04-02T22:33:04.396Z,4.47
2023-04-02T22:35:31.865Z,6.13
2023-04-02T22:37:59.218Z,4.22
2023-04-02T22:40:26.521Z,5.07
2023-04-02T22:42:53.689Z,5.70
2023-04-02T22:45:21.232Z,6.05
2023-04-02T22:47:49.198Z,6.10
2023-04-02T22:50:17.188Z,4.47
2023-04-02T22:52:44.641Z,5.40
2023-04-02T22:55:14.978Z,4.93
2023-04-02T22:57:42.613Z,4.72
2023-04-02T23:00:12.881Z,5.57
2023-04-02T23:02:40.496Z,6.28
2023-04-02T23:05:07.951Z,5.40
2023-04-02T23:07:35.738Z,5.55
2023-04-02T23:10:04.801Z,6.13
2023-04-02T23:12:33.274Z,4.95
2023-04-02T23:15:02.161Z,6.07
2023-04-02T23:17:29.702Z,4.63
2023-04-02T23:19:56.882Z,3.83
2023-04-02T23:22:24.506Z,4.43
2023-04-02T23:24:54.484Z,5.43
2023-04-02T23:27:23.290Z,5.18
2023-04-02T23:29:51.652Z,5.15
2023-04-02T23:32:19.949Z,5.38
2023-04-02T23:34:48.842Z,4.55
2023-04-02T23:37:16.980Z,6.57
2023-04-02T23:39:44.267Z,7.22
2023-04-02T23:42:12.494Z,4.38
2023-04-02T23:44:39.942Z,5.78
2023-04-02T23:47:07.215Z,6.10
2023-04-02T23:49:38.081Z,5.03
2023-04-02T23:52:05.274Z,6.75
2023-04-02T23:54:32.671Z,6.97
2023-04-02T23:56:59.920Z,4.85
2023-04-02T23:59:27.241Z,6.60
